createdAt,value
2018-07-02T00:00:32.731Z,13.24
2018-07-02T00:01:59.101Z,13.26
2018-07-02T00:03:26.431Z,13.27
2018-07-02T00:04:54.837Z,13.28
2018-07-02T00:06:22.160Z,13.28
2018-07-02T00:07:48.570Z,13.22
2018-07-02T00:09:16.826Z,13.18
2018-07-02T00:10:44.080Z,13.15
2018-07-02T00:12:10.369Z,13.12
2018-07-02T00:13:37.551Z,13.12
2018-07-02T00:15:05.184Z,13.14
2018-07-02T00:16:32.559Z,13.19
2018-07-02T00:18:00.035Z,13.21
2018-07-02T00:19:28.477Z,13.17
2018-07-02T00:20:54.791Z,13.20
2018-07-02T00:22:22.159Z,13.23
2018-07-02T00:23:50.393Z,13.27
2018-07-02T00:25:16.709Z,13.29
2018-07-02T00:26:45.019Z,13.30
2018-07-02T00:28:11.217Z,13.27
2018-07-02T00:29:38.687Z,13.21
2018-07-02T00:31:07.086Z,13.16
2018-07-02T00:32:33.325Z,13.14
2018-07-02T00:34:01.000Z,13.13
2018-07-02T00:35:28.326Z,13.08
2018-07-02T00:36:56.626Z,12.96
2018-07-02T00:38:23.101Z,12.79
2018-07-02T00:39:50.504Z,12.67
2018-07-02T00:41:17.859Z,12.59
2018-07-02T00:42:46.019Z,12.50
2018-07-02T00:44:12.521Z,12.46
2018-07-02T00:45:39.680Z,12.46
2018-07-02T00:47:06.910Z,12.49
2018-07-02T00:48:35.268Z,12.51
2018-07-02T00:50:01.597Z,12.54
2018-07-02T00:51:30.113Z,12.56
2018-07-02T00:52:56.460Z,12.57
2018-07-02T00:54:23.763Z,12.56
2018-07-02T00:55:50.835Z,12.54
2018-07-02T00:57:19.290Z,12.53
2018-07-02T00:58:45.564Z,12.49
2018-07-02T01:00:13.012Z,12.36
2018-07-02T01:01:40.328Z,12.21
2018-07-02T01:03:07.643Z,12.10
2018-07-02T01:04:34.996Z,12.03
2018-07-02T01:06:02.339Z,11.99
2018-07-02T01:07:30.593Z,11.99
2018-07-02T01:08:56.996Z,11.96
2018-07-02T01:10:25.164Z,11.90
2018-07-02T01:11:51.620Z,11.86
2018-07-02T01:13:18.939Z,11.85
2018-07-02T01:14:46.315Z,11.81
2018-07-02T01:16:14.703Z,11.75
2018-07-02T01:17:41.114Z,11.72
2018-07-02T01:19:08.499Z,11.74
2018-07-02T01:20:36.740Z,11.74
2018-07-02T01:22:02.753Z,11.76
2018-07-02T01:23:31.152Z,11.80
2018-07-02T01:24:57.469Z,11.84
2018-07-02T01:26:26.234Z,11.88
2018-07-02T01:27:52.318Z,11.94
2018-07-02T01:29:20.695Z,12.00
2018-07-02T01:30:48.014Z,12.06
2018-07-02T01:32:15.159Z,12.11
2018-07-02T01:33:41.447Z,12.16
2018-07-02T01:35:09.910Z,12.20
2018-07-02T01:36:36.019Z,12.29
2018-07-02T01:38:03.480Z,12.36
2018-07-02T01:39:30.474Z,12.42
2018-07-02T01:40:57.818Z,12.42
2018-07-02T01:42:24.976Z,12.39
2018-07-02T01:43:52.384Z,12.35
2018-07-02T01:45:20.560Z,12.30
2018-07-02T01:46:47.995Z,12.31
2018-07-02T01:48:14.275Z,12.24
2018-07-02T01:49:41.543Z,12.19
2018-07-02T01:51:09.030Z,12.18
2018-07-02T01:52:36.450Z,12.19
2018-07-02T01:54:04.902Z,12.18
2018-07-02T01:55:31.145Z,12.12
2018-07-02T01:56:59.617Z,12.05
2018-07-02T01:58:25.822Z,12.04
2018-07-02T01:59:53.126Z,12.04
2018-07-02T02:01:20.468Z,12.06
2018-07-02T02:02:48.875Z,12.07
2018-07-02T02:04:14.986Z,11.99
2018-07-02T02:05:43.487Z,11.88
2018-07-02T02:07:10.919Z,11.77
2018-07-02T02:08:38.372Z,11.65
2018-07-02T02:10:04.581Z,11.55
2018-07-02T02:11:32.172Z,11.48
2018-07-02T02:13:00.287Z,11.41
2018-07-02T02:14:26.688Z,11.38
2018-07-02T02:15:54.001Z,11.35
2018-07-02T02:17:21.277Z,11.35
2018-07-02T02:18:49.180Z,11.41
2018-07-02T02:20:15.478Z,11.46
2018-07-02T02:21:43.669Z,11.49
2018-07-02T02:23:09.944Z,11.53
2018-07-02T02:24:37.131Z,11.56
2018-07-02T02:26:04.475Z,11.58
2018-07-02T02:27:31.852Z,11.58
2018-07-02T02:28:59.134Z,11.50
2018-07-02T02:30:26.377Z,11.37
2018-07-02T02:31:53.861Z,11.20
2018-07-02T02:33:21.275Z,11.08
2018-07-02T02:34:49.695Z,11.01
2018-07-02T02:36:15.926Z,11.00
2018-07-02T02:37:44.298Z,10.96
2018-07-02T02:39:10.395Z,10.91
2018-07-02T02:40:37.868Z,10.82
2018-07-02T02:42:06.307Z,10.74
2018-07-02T02:43:35.400Z,10.66
2018-07-02T02:44:59.655Z,10.62
2018-07-02T02:46:26.830Z,10.60
2018-07-02T02:47:54.432Z,10.64
2018-07-02T02:49:21.724Z,10.69
2018-07-02T02:50:49.969Z,10.70
2018-07-02T02:52:17.420Z,10.75
2018-07-02T02:53:43.600Z,10.78
2018-07-02T02:55:10.951Z,10.75
2018-07-02T02:56:39.223Z,10.69
2018-07-02T02:58:05.571Z,10.65
2018-07-02T02:59:32.962Z,10.65
2018-07-02T03:01:01.043Z,10.62
2018-07-02T03:02:27.330Z,10.58
2018-07-02T03:03:54.739Z,10.57
2018-07-02T03:05:22.809Z,10.52
2018-07-02T03:06:49.226Z,10.47
2018-07-02T03:08:16.521Z,10.42
2018-07-02T03:09:44.719Z,10.45
2018-07-02T03:11:11.972Z,10.46
2018-07-02T03:12:38.377Z,10.47
2018-07-02T03:14:05.680Z,10.51
2018-07-02T03:15:33.075Z,10.50
2018-07-02T03:17:00.499Z,10.50
2018-07-02T03:18:28.050Z,10.54
2018-07-02T03:19:55.361Z,10.56
2018-07-02T03:21:22.719Z,10.58
2018-07-02T03:22:49.948Z,10.64
2018-07-02T03:24:17.423Z,10.69
2018-07-02T03:25:45.588Z,10.76
2018-07-02T03:27:11.837Z,10.86
2018-07-02T03:28:40.088Z,10.94
2018-07-02T03:30:06.229Z,11.00
2018-07-02T03:31:33.710Z,11.06
2018-07-02T03:33:01.069Z,11.11
2018-07-02T03:34:29.355Z,11.19
2018-07-02T03:35:56.819Z,11.25
2018-07-02T03:37:23.164Z,11.26
2018-07-02T03:38:50.429Z,11.30
2018-07-02T03:40:18.676Z,11.35
2018-07-02T03:41:46.143Z,11.42
2018-07-02T03:43:12.367Z,11.49
2018-07-02T03:44:39.893Z,11.52
2018-07-02T03:46:07.088Z,11.54
2018-07-02T03:47:35.312Z,11.58
2018-07-02T03:49:01.423Z,11.64
2018-07-02T03:50:28.752Z,11.68
2018-07-02T03:51:56.291Z,11.73
2018-07-02T03:53:23.381Z,11.77
2018-07-02T03:54:51.811Z,11.82
2018-07-02T03:56:17.945Z,11.83
2018-07-02T03:57:45.256Z,11.78
2018-07-02T03:59:12.652Z,11.82
2018-07-02T04:00:39.931Z,11.85
2018-07-02T04:02:07.479Z,11.95
2018-07-02T04:03:34.806Z,12.15
2018-07-02T04:05:03.162Z,12.42
2018-07-02T04:06:30.600Z,12.70
2018-07-02T04:07:56.939Z,12.75
2018-07-02T04:09:25.426Z,12.73
2018-07-02T04:10:52.451Z,12.78
2018-07-02T04:12:18.753Z,12.77
2018-07-02T04:13:45.973Z,12.61
2018-07-02T04:15:14.229Z,12.42
2018-07-02T04:16:41.580Z,12.30
2018-07-02T04:18:07.898Z,12.30
2018-07-02T04:19:35.837Z,12.34
2018-07-02T04:21:01.923Z,12.39
2018-07-02T04:22:30.304Z,12.43
2018-07-02T04:23:57.643Z,12.46
2018-07-02T04:25:24.186Z,12.52
2018-07-02T04:26:52.534Z,12.55
2018-07-02T04:28:19.940Z,12.59
2018-07-02T04:29:46.060Z,12.57
2018-07-02T04:31:14.293Z,12.51
2018-07-02T04:32:40.767Z,12.45
2018-07-02T04:34:08.840Z,12.44
2018-07-02T04:35:36.188Z,12.46
2018-07-02T04:37:03.081Z,12.48
2018-07-02T04:38:29.707Z,12.53
2018-07-02T04:39:57.029Z,12.51
2018-07-02T04:41:25.475Z,12.49
2018-07-02T04:42:51.590Z,12.49
2018-07-02T04:44:18.545Z,12.50
2018-07-02T04:45:45.867Z,12.51
2018-07-02T04:47:13.289Z,12.50
2018-07-02T04:48:40.634Z,12.49
2018-07-02T04:50:08.838Z,12.54
2018-07-02T04:51:36.267Z,12.64
2018-07-02T04:53:02.380Z,12.78
2018-07-02T04:54:30.802Z,12.90
2018-07-02T04:55:58.268Z,13.00
2018-07-02T04:57:24.539Z,13.11
2018-07-02T04:58:51.700Z,13.23
2018-07-02T05:00:18.814Z,13.30
2018-07-02T05:01:47.147Z,13.32
2018-07-02T05:03:14.359Z,13.36
2018-07-02T05:04:40.694Z,13.42
2018-07-02T05:06:08.885Z,13.49
2018-07-02T05:07:36.327Z,13.59
2018-07-02T05:09:02.354Z,13.65
2018-07-02T05:10:30.828Z,13.63
2018-07-02T05:11:56.934Z,13.54
2018-07-02T05:13:24.378Z,13.48
2018-07-02T05:14:51.755Z,13.52
2018-07-02T05:16:19.254Z,13.67
2018-07-02T05:17:46.571Z,13.82
2018-07-02T05:19:14.779Z,13.98
2018-07-02T05:20:41.119Z,14.11
2018-07-02T05:22:09.606Z,14.19
2018-07-02T05:23:36.619Z,14.22
2018-07-02T05:25:02.644Z,14.30
2018-07-02T05:26:30.108Z,14.27
2018-07-02T05:27:57.503Z,14.29
2018-07-02T05:29:24.784Z,14.38
2018-07-02T05:30:52.831Z,14.44
2018-07-02T05:32:20.289Z,14.44
2018-07-02T05:33:46.583Z,14.44
2018-07-02T05:35:14.676Z,14.47
2018-07-02T05:36:41.070Z,14.61
2018-07-02T05:38:09.329Z,14.78
2018-07-02T05:39:35.553Z,14.99
2018-07-02T05:41:02.868Z,15.24
2018-07-02T05:42:30.358Z,15.66
2018-07-02T05:43:59.083Z,16.24
2018-07-02T05:45:25.524Z,16.95
2018-07-02T05:46:53.158Z,17.73
2018-07-02T05:48:20.703Z,18.39
2018-07-02T05:49:48.254Z,18.98
2018-07-02T05:51:16.536Z,19.34
2018-07-02T05:52:42.590Z,19.77
2018-07-02T05:54:09.884Z,19.83
2018-07-02T05:55:38.410Z,19.57
2018-07-02T05:57:04.309Z,19.37
2018-07-02T05:58:31.927Z,19.48
2018-07-02T06:00:00.313Z,19.57
2018-07-02T06:01:27.765Z,19.75
2018-07-02T06:02:55.174Z,20.01
2018-07-02T06:04:21.657Z,20.19
2018-07-02T06:05:49.289Z,20.30
2018-07-02T06:07:16.444Z,20.41
2018-07-02T06:08:43.492Z,20.54
2018-07-02T06:10:10.693Z,20.64
2018-07-02T06:11:38.157Z,20.73
2018-07-02T06:13:05.729Z,20.74
2018-07-02T06:14:32.861Z,20.76
2018-07-02T06:16:00.039Z,20.69
2018-07-02T06:17:27.065Z,20.70
2018-07-02T06:18:54.676Z,20.60
2018-07-02T06:20:22.207Z,20.62
2018-07-02T06:21:49.524Z,20.56
2018-07-02T06:23:16.927Z,20.49
2018-07-02T06:24:44.458Z,20.58
2018-07-02T06:26:11.952Z,20.71
2018-07-02T06:27:39.664Z,20.67
2018-07-02T06:29:06.730Z,20.67
2018-07-02T06:30:35.474Z,20.74
2018-07-02T06:32:01.997Z,20.79
2018-07-02T06:33:29.525Z,20.79
2018-07-02T06:34:56.604Z,20.76
2018-07-02T06:36:23.925Z,20.82
2018-07-02T06:37:51.546Z,20.81
2018-07-02T06:39:20.110Z,20.69
2018-07-02T06:40:46.645Z,20.68
2018-07-02T06:42:13.827Z,20.86
2018-07-02T06:43:41.252Z,21.08
2018-07-02T06:45:08.964Z,21.45
2018-07-02T06:46:36.493Z,21.96
2018-07-02T06:48:04.278Z,22.45
2018-07-02T06:49:32.455Z,22.99
2018-07-02T06:51:00.080Z,23.58
2018-07-02T06:52:26.412Z,24.15
2018-07-02T06:53:54.105Z,24.71
2018-07-02T06:55:21.873Z,25.25
2018-07-02T06:56:50.310Z,25.54
2018-07-02T06:58:16.943Z,25.64
2018-07-02T06:59:44.416Z,25.76
2018-07-02T07:01:11.978Z,25.44
2018-07-02T07:02:40.592Z,24.91
2018-07-02T07:04:07.041Z,24.59
2018-07-02T07:05:34.735Z,24.39
2018-07-02T07:07:01.511Z,24.19
2018-07-02T07:08:29.021Z,23.96
2018-07-02T07:09:56.429Z,23.70
2018-07-02T07:11:24.972Z,23.45
2018-07-02T07:12:51.345Z,23.22
2018-07-02T07:14:21.752Z,22.98
2018-07-02T07:15:45.981Z,22.87
2018-07-02T07:17:14.267Z,22.87
2018-07-02T07:18:40.924Z,22.87
2018-07-02T07:20:08.525Z,22.96
2018-07-02T07:21:36.039Z,22.99
2018-07-02T07:23:04.508Z,23.00
2018-07-02T07:24:31.091Z,23.11
2018-07-02T07:25:58.661Z,23.25
2018-07-02T07:27:26.421Z,23.40
2018-07-02T07:28:53.957Z,23.43
2018-07-02T07:30:21.386Z,23.41
2018-07-02T07:31:49.583Z,23.31
2018-07-02T07:33:16.050Z,23.16
2018-07-02T07:34:43.532Z,23.11
2018-07-02T07:36:10.609Z,22.95
2018-07-02T07:37:39.225Z,22.88
2018-07-02T07:39:06.801Z,22.85
2018-07-02T07:40:33.467Z,22.81
2018-07-02T07:42:01.334Z,22.78
2018-07-02T07:43:28.631Z,22.74
2018-07-02T07:44:55.331Z,22.70
2018-07-02T07:46:22.772Z,22.61
2018-07-02T07:47:50.063Z,22.57
2018-07-02T07:49:17.436Z,22.48
2018-07-02T07:50:45.109Z,22.44
2018-07-02T07:52:12.060Z,22.44
2018-07-02T07:53:39.245Z,22.40
2018-07-02T07:55:06.653Z,22.36
2018-07-02T07:56:34.317Z,22.30
2018-07-02T07:58:01.525Z,22.28
2018-07-02T07:59:28.959Z,22.26
2018-07-02T08:00:57.565Z,22.26
2018-07-02T08:02:24.064Z,22.26
2018-07-02T08:03:51.501Z,22.26
2018-07-02T08:05:19.948Z,22.27
2018-07-02T08:06:46.251Z,22.28
2018-07-02T08:08:14.664Z,22.29
2018-07-02T08:09:41.023Z,22.29
2018-07-02T08:11:08.609Z,22.32
2018-07-02T08:12:37.414Z,22.33
2018-07-02T08:14:03.839Z,22.36
2018-07-02T08:15:32.344Z,22.38
2018-07-02T08:16:59.790Z,22.41
2018-07-02T08:18:26.424Z,22.41
2018-07-02T08:19:55.012Z,22.42
2018-07-02T08:21:21.411Z,22.45
2018-07-02T08:22:48.927Z,22.48
2018-07-02T08:24:16.316Z,22.51
2018-07-02T08:25:43.672Z,22.52
2018-07-02T08:27:11.099Z,22.51
2018-07-02T08:28:38.453Z,22.51
2018-07-02T08:30:05.985Z,22.54
2018-07-02T08:31:33.772Z,22.54
2018-07-02T08:33:02.119Z,22.57
2018-07-02T08:34:28.551Z,22.58
2018-07-02T08:35:55.963Z,22.61
2018-07-02T08:37:23.518Z,22.64
2018-07-02T08:38:50.957Z,22.65
2018-07-02T08:40:18.244Z,22.69
2018-07-02T08:41:45.740Z,22.73
2018-07-02T08:43:12.980Z,22.75
2018-07-02T08:44:40.212Z,22.77
2018-07-02T08:46:07.583Z,22.83
2018-07-02T08:47:36.019Z,22.83
2018-07-02T08:49:03.501Z,22.84
2018-07-02T08:50:30.136Z,22.88
2018-07-02T08:51:58.606Z,22.94
2018-07-02T08:53:25.233Z,22.98
2018-07-02T08:54:53.467Z,23.00
2018-07-02T08:56:19.845Z,23.05
2018-07-02T08:57:48.080Z,23.08
2018-07-02T08:59:14.454Z,23.11
2018-07-02T09:00:42.021Z,23.15
2018-07-02T09:02:10.405Z,23.21
2018-07-02T09:03:37.856Z,23.26
2018-07-02T09:05:03.829Z,23.29
2018-07-02T09:06:31.375Z,23.32
2018-07-02T09:07:59.015Z,23.36
2018-07-02T09:09:26.482Z,23.40
2018-07-02T09:10:53.978Z,23.46
2018-07-02T09:12:21.543Z,23.49
2018-07-02T09:13:48.975Z,23.52
2018-07-02T09:15:16.444Z,23.54
2018-07-02T09:16:43.995Z,23.60
2018-07-02T09:18:12.395Z,23.64
2018-07-02T09:19:38.863Z,23.66
2018-07-02T09:21:07.516Z,23.68
2018-07-02T09:22:34.092Z,23.71
2018-07-02T09:24:02.647Z,23.71
2018-07-02T09:25:28.793Z,23.75
2018-07-02T09:26:56.119Z,23.77
2018-07-02T09:28:24.845Z,23.81
2018-07-02T09:29:51.139Z,23.86
2018-07-02T09:31:18.714Z,23.92
2018-07-02T09:32:46.996Z,23.97
2018-07-02T09:34:14.400Z,24.00
2018-07-02T09:35:41.086Z,24.05
2018-07-02T09:37:08.660Z,24.11
2018-07-02T09:38:36.976Z,24.17
2018-07-02T09:40:03.678Z,24.19
2018-07-02T09:41:32.336Z,24.20
2018-07-02T09:42:58.579Z,24.23
2018-07-02T09:44:26.154Z,24.31
2018-07-02T09:45:53.741Z,24.34
2018-07-02T09:47:21.099Z,24.40
2018-07-02T09:48:48.536Z,24.46
2018-07-02T09:50:15.984Z,24.46
2018-07-02T09:51:43.486Z,24.47
2018-07-02T09:53:11.091Z,24.49
2018-07-02T09:54:39.769Z,24.54
2018-07-02T09:56:07.484Z,24.57
2018-07-02T09:57:35.003Z,24.57
2018-07-02T09:59:02.649Z,24.55
2018-07-02T10:00:29.304Z,24.52
2018-07-02T10:01:56.891Z,24.50
2018-07-02T10:03:24.224Z,24.51
2018-07-02T10:04:52.868Z,24.53
2018-07-02T10:06:19.335Z,24.56
2018-07-02T10:07:47.954Z,24.58
2018-07-02T10:09:14.332Z,24.57
2018-07-02T10:10:43.114Z,24.58
2018-07-02T10:12:09.331Z,24.63
2018-07-02T10:13:36.688Z,24.62
2018-07-02T10:15:04.359Z,24.66
2018-07-02T10:16:31.831Z,24.72
2018-07-02T10:17:59.488Z,24.79
2018-07-02T10:19:27.210Z,24.85
2018-07-02T10:20:55.818Z,24.88
2018-07-02T10:22:23.292Z,24.89
2018-07-02T10:23:49.629Z,24.91
2018-07-02T10:25:18.152Z,24.93
2018-07-02T10:26:44.531Z,24.91
2018-07-02T10:28:11.959Z,24.88
2018-07-02T10:29:40.532Z,24.88
2018-07-02T10:31:07.067Z,24.90
2018-07-02T10:32:35.042Z,24.92
2018-07-02T10:34:01.556Z,24.96
2018-07-02T10:35:30.200Z,25.03
2018-07-02T10:36:57.636Z,25.08
2018-07-02T10:38:25.112Z,25.13
2018-07-02T10:39:51.718Z,25.17
2018-07-02T10:41:20.254Z,25.21
2018-07-02T10:42:46.824Z,25.26
2018-07-02T10:44:14.274Z,25.29
2018-07-02T10:45:42.557Z,25.34
2018-07-02T10:47:09.000Z,25.38
2018-07-02T10:48:36.567Z,25.40
2018-07-02T10:50:04.124Z,25.43
2018-07-02T10:51:31.490Z,25.48
2018-07-02T10:52:59.019Z,25.53
2018-07-02T10:54:26.445Z,25.59
2018-07-02T10:55:54.948Z,25.67
2018-07-02T10:57:21.427Z,25.79
2018-07-02T10:58:49.052Z,25.93
2018-07-02T11:00:16.578Z,26.06
2018-07-02T11:01:43.799Z,26.21
2018-07-02T11:03:11.520Z,26.34
2018-07-02T11:04:39.053Z,26.24
2018-07-02T11:06:06.798Z,26.03
2018-07-02T11:07:34.423Z,25.77
2018-07-02T11:09:01.973Z,25.73
2018-07-02T11:10:29.450Z,25.88
2018-07-02T11:11:57.573Z,26.15
2018-07-02T11:13:24.062Z,26.45
2018-07-02T11:14:51.648Z,26.76
2018-07-02T11:16:19.417Z,27.03
2018-07-02T11:17:47.806Z,27.27
2018-07-02T11:19:14.259Z,27.34
2018-07-02T11:20:41.911Z,27.14
2018-07-02T11:22:09.635Z,27.25
2018-07-02T11:23:43.265Z,27.48
2018-07-02T11:25:04.821Z,27.74
2018-07-02T11:26:33.494Z,27.94
2018-07-02T11:28:01.157Z,27.89
2018-07-02T11:29:27.909Z,27.67
2018-07-02T11:30:55.276Z,27.25
2018-07-02T11:32:22.944Z,26.88
2018-07-02T11:33:50.448Z,26.51
2018-07-02T11:35:19.130Z,26.55
2018-07-02T11:36:45.491Z,26.63
2018-07-02T11:38:13.205Z,26.87
2018-07-02T11:39:41.626Z,27.08
2018-07-02T11:41:09.257Z,27.22
2018-07-02T11:42:36.000Z,27.37
2018-07-02T11:44:04.737Z,27.59
2018-07-02T11:45:31.417Z,27.86
2018-07-02T11:46:58.966Z,27.79
2018-07-02T11:48:26.600Z,27.89
2018-07-02T11:49:54.121Z,27.99
2018-07-02T11:51:22.934Z,28.21
2018-07-02T11:52:49.540Z,28.36
2018-07-02T11:54:18.176Z,28.60
2018-07-02T11:55:44.700Z,28.74
2018-07-02T11:57:12.202Z,29.02
2018-07-02T11:58:39.493Z,29.12
2018-07-02T12:00:07.234Z,29.40
2018-07-02T12:01:34.900Z,29.52
2018-07-02T12:03:02.515Z,29.46
2018-07-02T12:04:30.141Z,29.06
2018-07-02T12:05:57.830Z,28.86
2018-07-02T12:07:26.493Z,28.89
2018-07-02T12:08:53.170Z,28.82
2018-07-02T12:10:20.800Z,28.80
2018-07-02T12:11:48.336Z,28.70
2018-07-02T12:13:15.827Z,28.91
2018-07-02T12:14:43.510Z,28.93
2018-07-02T12:16:11.059Z,29.01
2018-07-02T12:17:39.615Z,29.00
2018-07-02T12:19:06.139Z,28.80
2018-07-02T12:20:33.850Z,28.61
2018-07-02T12:22:01.463Z,28.54
2018-07-02T12:23:29.392Z,28.51
2018-07-02T12:24:57.062Z,28.36
2018-07-02T12:26:24.711Z,28.06
2018-07-02T12:27:52.392Z,27.65
2018-07-02T12:29:19.999Z,27.35
2018-07-02T12:30:47.458Z,27.30
2018-07-02T12:32:15.162Z,27.38
2018-07-02T12:33:42.561Z,27.39
2018-07-02T12:35:10.138Z,27.53
2018-07-02T12:36:37.592Z,27.56
2018-07-02T12:38:05.285Z,27.61
2018-07-02T12:39:32.939Z,27.62
2018-07-02T12:41:00.625Z,27.62
2018-07-02T12:42:28.335Z,27.78
2018-07-02T12:43:55.995Z,28.11
2018-07-02T12:45:23.452Z,28.41
2018-07-02T12:46:50.914Z,28.75
2018-07-02T12:48:18.474Z,29.08
2018-07-02T12:49:45.914Z,29.20
2018-07-02T12:51:13.497Z,29.25
2018-07-02T12:52:41.218Z,28.97
2018-07-02T12:54:08.862Z,28.90
2018-07-02T12:55:37.345Z,28.83
2018-07-02T12:57:04.197Z,28.63
2018-07-02T12:58:31.875Z,28.48
2018-07-02T12:59:59.165Z,28.44
2018-07-02T13:01:25.798Z,28.50
2018-07-02T13:02:54.414Z,28.52
2018-07-02T13:04:22.075Z,28.29
2018-07-02T13:05:49.465Z,27.89
2018-07-02T13:07:16.061Z,27.49
2018-07-02T13:08:43.529Z,27.38
2018-07-02T13:10:11.007Z,27.43
2018-07-02T13:11:38.488Z,27.51
2018-07-02T13:13:07.109Z,27.46
2018-07-02T13:14:33.597Z,27.24
2018-07-02T13:16:02.376Z,26.93
2018-07-02T13:17:29.121Z,26.68
2018-07-02T13:18:56.676Z,26.46
2018-07-02T13:20:25.395Z,26.31
2018-07-02T13:21:51.647Z,26.20
2018-07-02T13:23:19.246Z,26.16
2018-07-02T13:24:46.693Z,26.22
2018-07-02T13:26:15.363Z,26.10
2018-07-02T13:27:41.006Z,26.00
2018-07-02T13:29:08.754Z,25.87
2018-07-02T13:30:36.892Z,25.86
2018-07-02T13:32:03.111Z,25.89
2018-07-02T13:33:30.688Z,25.85
2018-07-02T13:34:57.708Z,25.75
2018-07-02T13:36:26.794Z,25.73
2018-07-02T13:37:54.049Z,25.68
2018-07-02T13:39:20.583Z,25.67
2018-07-02T13:40:48.219Z,25.67
2018-07-02T13:42:15.767Z,25.70
2018-07-02T13:43:43.014Z,25.67
2018-07-02T13:45:10.759Z,25.60
2018-07-02T13:46:38.256Z,25.58
2018-07-02T13:48:05.936Z,25.55
2018-07-02T13:49:33.684Z,25.56
2018-07-02T13:51:01.220Z,25.59
2018-07-02T13:52:28.478Z,25.65
2018-07-02T13:53:55.616Z,25.70
2018-07-02T13:55:23.305Z,25.68
2018-07-02T13:56:50.543Z,25.60
2018-07-02T13:58:18.004Z,25.43
2018-07-02T13:59:45.494Z,25.42
2018-07-02T14:01:14.009Z,25.39
2018-07-02T14:02:41.517Z,25.29
2018-07-02T14:04:08.303Z,25.20
2018-07-02T14:05:35.985Z,25.13
2018-07-02T14:07:04.446Z,25.11
2018-07-02T14:08:31.035Z,25.12
2018-07-02T14:09:58.672Z,25.11
2018-07-02T14:11:26.256Z,25.12
2018-07-02T14:12:53.790Z,25.14
2018-07-02T14:14:22.157Z,25.20
2018-07-02T14:15:48.755Z,25.18
2018-07-02T14:17:16.116Z,25.14
2018-07-02T14:18:43.286Z,25.02
2018-07-02T14:20:10.698Z,24.86
2018-07-02T14:21:39.300Z,24.79
2018-07-02T14:23:05.927Z,24.69
2018-07-02T14:24:34.432Z,24.61
2018-07-02T14:26:00.928Z,24.61
2018-07-02T14:27:28.661Z,24.69
2018-07-02T14:28:56.361Z,24.76
2018-07-02T14:30:23.937Z,24.77
2018-07-02T14:31:51.198Z,24.73
2018-07-02T14:33:19.794Z,24.73
2018-07-02T14:34:46.369Z,24.67
2018-07-02T14:36:13.817Z,24.61
2018-07-02T14:37:41.376Z,24.55
2018-07-02T14:39:10.385Z,24.54
2018-07-02T14:40:36.960Z,24.58
2018-07-02T14:42:04.653Z,24.55
2018-07-02T14:43:32.186Z,24.50
2018-07-02T14:45:00.920Z,24.46
2018-07-02T14:46:28.288Z,24.42
2018-07-02T14:47:54.905Z,24.41
2018-07-02T14:49:23.443Z,24.41
2018-07-02T14:50:50.003Z,24.39
2018-07-02T14:52:17.618Z,24.37
2018-07-02T14:53:45.008Z,24.36
2018-07-02T14:55:13.763Z,24.36
2018-07-02T14:56:41.015Z,24.37
2018-07-02T14:58:07.558Z,24.38
2018-07-02T14:59:35.224Z,24.41
2018-07-02T15:01:02.784Z,24.42
2018-07-02T15:02:30.292Z,24.44
2018-07-02T15:03:58.972Z,24.48
2018-07-02T15:05:25.395Z,24.51
2018-07-02T15:06:54.160Z,24.52
2018-07-02T15:08:21.104Z,24.56
2018-07-02T15:09:47.748Z,24.56
2018-07-02T15:11:15.000Z,24.50
2018-07-02T15:12:43.403Z,24.48
2018-07-02T15:14:09.964Z,24.46
2018-07-02T15:15:37.767Z,24.40
2018-07-02T15:17:06.404Z,24.37
2018-07-02T15:18:34.134Z,24.40
2018-07-02T15:20:00.687Z,24.41
2018-07-02T15:21:28.012Z,24.42
2018-07-02T15:22:55.707Z,24.41
2018-07-02T15:24:23.229Z,24.38
2018-07-02T15:25:50.788Z,24.34
2018-07-02T15:27:18.397Z,24.30
2018-07-02T15:28:46.838Z,24.23
2018-07-02T15:30:13.422Z,24.17
2018-07-02T15:31:41.046Z,24.15
2018-07-02T15:33:08.564Z,24.17
2018-07-02T15:34:35.968Z,24.18
2018-07-02T15:36:03.526Z,24.14
2018-07-02T15:37:32.076Z,24.11
2018-07-02T15:38:58.669Z,24.11
2018-07-02T15:40:27.252Z,24.08
2018-07-02T15:41:53.919Z,24.00
2018-07-02T15:43:21.212Z,23.94
2018-07-02T15:44:48.661Z,23.88
2018-07-02T15:46:16.230Z,23.87
2018-07-02T15:47:43.704Z,23.85
2018-07-02T15:49:12.388Z,23.85
2018-07-02T15:50:39.966Z,23.90
2018-07-02T15:52:06.498Z,23.94
2018-07-02T15:53:34.017Z,23.95
2018-07-02T15:55:02.702Z,23.98
2018-07-02T15:56:30.228Z,24.00
2018-07-02T15:57:56.599Z,24.04
2018-07-02T15:59:25.179Z,24.08
2018-07-02T16:00:52.568Z,24.13
2018-07-02T16:02:19.200Z,24.14
2018-07-02T16:03:46.654Z,24.11
2018-07-02T16:05:14.357Z,24.09
2018-07-02T16:06:41.495Z,24.06
2018-07-02T16:08:08.910Z,24.02
2018-07-02T16:09:36.383Z,24.04
2018-07-02T16:11:03.855Z,24.05
2018-07-02T16:12:32.542Z,23.96
2018-07-02T16:13:58.579Z,23.95
2018-07-02T16:15:26.181Z,23.93
2018-07-02T16:16:53.757Z,23.88
2018-07-02T16:18:22.357Z,23.87
2018-07-02T16:19:49.755Z,23.87
2018-07-02T16:21:17.308Z,23.85
2018-07-02T16:22:43.768Z,23.83
2018-07-02T16:24:11.345Z,23.81
2018-07-02T16:25:39.972Z,23.77
2018-07-02T16:27:07.475Z,23.78
2018-07-02T16:28:33.973Z,23.78
2018-07-02T16:30:01.544Z,23.80
2018-07-02T16:31:28.912Z,23.79
2018-07-02T16:32:56.546Z,23.78
2018-07-02T16:34:24.242Z,23.72
2018-07-02T16:35:51.759Z,23.67
2018-07-02T16:37:19.106Z,23.67
2018-07-02T16:38:46.631Z,23.67
2018-07-02T16:40:13.982Z,23.66
2018-07-02T16:41:41.544Z,23.64
2018-07-02T16:43:09.205Z,23.64
2018-07-02T16:44:36.229Z,23.66
2018-07-02T16:46:03.504Z,23.67
2018-07-02T16:47:32.001Z,23.60
2018-07-02T16:48:59.665Z,23.60
2018-07-02T16:50:26.183Z,23.62
2018-07-02T16:51:53.562Z,23.62
2018-07-02T16:53:21.256Z,23.63
2018-07-02T16:54:48.646Z,23.60
2018-07-02T16:56:16.972Z,23.57
2018-07-02T16:57:44.247Z,23.56
2018-07-02T16:59:10.555Z,23.55
2018-07-02T17:00:38.257Z,23.53
2018-07-02T17:02:05.955Z,23.53
2018-07-02T17:03:34.422Z,23.54
2018-07-02T17:05:02.013Z,23.53
2018-07-02T17:06:28.632Z,23.55
2018-07-02T17:07:56.196Z,23.56
2018-07-02T17:09:24.761Z,23.56
2018-07-02T17:10:52.410Z,23.57
2018-07-02T17:12:19.908Z,23.58
2018-07-02T17:13:46.212Z,23.57
2018-07-02T17:15:14.510Z,23.56
2018-07-02T17:16:42.220Z,23.55
2018-07-02T17:18:08.796Z,23.57
2018-07-02T17:19:37.334Z,23.53
2018-07-02T17:21:03.823Z,23.53
2018-07-02T17:22:31.455Z,23.52
2018-07-02T17:23:59.050Z,23.49
2018-07-02T17:25:27.554Z,23.45
2018-07-02T17:26:54.131Z,23.42
2018-07-02T17:28:21.689Z,23.35
2018-07-02T17:29:50.085Z,23.32
2018-07-02T17:31:17.735Z,23.29
2018-07-02T17:32:44.264Z,23.27
2018-07-02T17:34:11.704Z,23.26
2018-07-02T17:35:39.392Z,23.27
2018-07-02T17:37:06.818Z,23.29
2018-07-02T17:38:34.381Z,23.28
2018-07-02T17:40:02.052Z,23.23
2018-07-02T17:41:29.659Z,23.15
2018-07-02T17:42:57.214Z,23.07
2018-07-02T17:44:24.677Z,23.02
2018-07-02T17:45:52.144Z,22.98
2018-07-02T17:47:20.849Z,22.94
2018-07-02T17:48:48.315Z,22.93
2018-07-02T17:50:14.757Z,22.94
2018-07-02T17:51:42.329Z,22.90
2018-07-02T17:53:10.443Z,22.88
2018-07-02T17:54:37.996Z,22.86
2018-07-02T17:56:04.359Z,22.84
2018-07-02T17:57:32.708Z,22.82
2018-07-02T17:59:00.513Z,22.80
2018-07-02T18:00:27.971Z,22.82
2018-07-02T18:01:54.603Z,22.81
2018-07-02T18:03:22.146Z,22.79
2018-07-02T18:04:49.806Z,22.79
2018-07-02T18:06:18.505Z,22.77
2018-07-02T18:07:44.908Z,22.77
2018-07-02T18:09:12.482Z,22.78
2018-07-02T18:10:41.201Z,22.78
2018-07-02T18:12:08.588Z,22.75
2018-07-02T18:13:36.175Z,22.75
2018-07-02T18:15:02.687Z,22.74
2018-07-02T18:16:30.409Z,22.71
2018-07-02T18:17:58.987Z,22.69
2018-07-02T18:19:25.518Z,22.68
2018-07-02T18:20:53.170Z,22.67
2018-07-02T18:22:20.512Z,22.66
2018-07-02T18:23:48.070Z,22.64
2018-07-02T18:25:15.593Z,22.60
2018-07-02T18:26:43.025Z,22.58
2018-07-02T18:28:10.422Z,22.54
2018-07-02T18:29:38.145Z,22.53
2018-07-02T18:31:06.721Z,22.52
2018-07-02T18:32:33.174Z,22.51
2018-07-02T18:34:00.886Z,22.52
2018-07-02T18:35:28.363Z,22.53
2018-07-02T18:36:56.051Z,22.52
2018-07-02T18:38:23.577Z,22.46
2018-07-02T18:39:51.339Z,22.42
2018-07-02T18:41:19.913Z,22.40
2018-07-02T18:42:46.434Z,22.34
2018-07-02T18:44:14.831Z,22.31
2018-07-02T18:45:42.486Z,22.29